sensor_id;sensor_type;location;lat;lon;timestamp;pressure;altitude;pressure_sealevel;temperature;humidity
19748;BME280;10032;51.386;12.516;2023-08-07T00:02:19;99006.50;;;17.24;100.00
19748;BME280;10032;51.386;12.516;2023-08-07T00:04:45;99001.50;;;17.26;100.00
19748;BME280;10032;51.386;12.516;2023-08-07T00:07:10;99005.22;;;17.21;100.00
19748;BME280;10032;51.386;12.516;2023-08-07T00:09:35;99003.47;;;17.25;100.00
19748;BME280;10032;51.386;12.516;2023-08-07T00:12:01;99012.31;;;17.22;100.00
19748;BME280;10032;51.386;12.516;2023-08-07T00:14:26;99007.13;;;17.12;100.00
19748;BME280;10032;51.386;12.516;2023-08-07T00:16:51;99006.34;;;17.03;100.00
19748;BME280;10032;51.386;12.516;2023-08-07T00:19:17;99005.84;;;17.01;100.00
19748;BME280;10032;51.386;12.516;2023-08-07T00:21:42;99013.72;;;17.03;100.00
19748;BME280;10032;51.386;12.516;2023-08-07T00:24:08;99007.47;;;17.02;100.00
19748;BME280;10032;51.386;12.516;2023-08-07T00:26:33;99009.88;;;17.04;100.00
19748;BME280;10032;51.386;12.516;2023-08-07T00:28:58;99005.22;;;17.04;100.00
19748;BME280;10032;51.386;12.516;2023-08-07T00:31:24;99005.84;;;17.01;100.00
19748;BME280;10032;51.386;12.516;2023-08-07T00:33:49;99005.66;;;16.98;100.00
19748;BME280;10032;51.386;12.516;2023-08-07T00:36:17;99006.50;;;16.98;100.00
19748;BME280;10032;51.386;12.516;2023-08-07T00:38:42;99007.47;;;17.02;100.00
19748;BME280;10032;51.386;12.516;2023-08-07T00:41:07;99009.69;;;17.00;100.00
19748;BME280;10032;51.386;12.516;2023-08-07T00:43:35;99004.88;;;16.97;100.00
19748;BME280;10032;51.386;12.516;2023-08-07T00:46:01;99011.97;;;16.98;100.00
19748;BME280;10032;51.386;12.516;2023-08-07T00:48:26;99011.13;;;16.98;100.00
19748;BME280;10032;51.386;12.516;2023-08-07T00:50:52;99004.06;;;16.97;100.00
19748;BME280;10032;51.386;12.516;2023-08-07T00:53:19;99001.16;;;16.93;100.00
19748;BME280;10032;51.386;12.516;2023-08-07T00:55:45;99007.63;;;16.97;100.00
19748;BME280;10032;51.386;12.516;2023-08-07T00:58:11;99001.00;;;16.98;100.00
19748;BME280;10032;51.386;12.516;2023-08-07T01:00:37;99004.38;;;17.04;100.00
19748;BME280;10032;51.386;12.516;2023-08-07T01:03:05;99003.75;;;17.07;100.00
19748;BME280;10032;51.386;12.516;2023-08-07T01:05:30;98999.88;;;17.08;100.00
19748;BME280;10032;51.386;12.516;2023-08-07T01:07:56;99008.25;;;17.11;100.00
19748;BME280;10032;51.386;12.516;2023-08-07T01:13:40;99006.81;;;17.05;100.00
19748;BME280;10032;51.386;12.516;2023-08-07T01:16:14;99020.19;;;17.07;100.00
19748;BME280;10032;51.386;12.516;2023-08-07T01:18:42;99009.06;;;17.03;100.00
19748;BME280;10032;51.386;12.516;2023-08-07T01:21:19;99011.66;;;17.00;100.00
19748;BME280;10032;51.386;12.516;2023-08-07T01:23:48;99004.53;;;16.90;100.00
19748;BME280;10032;51.386;12.516;2023-08-07T01:26:18;99004.84;;;16.89;100.00
19748;BME280;10032;51.386;12.516;2023-08-07T01:29:19;99015.00;;;16.88;100.00
19748;BME280;10032;51.386;12.516;2023-08-07T01:31:49;99014.50;;;16.86;100.00
19748;BME280;10032;51.386;12.516;2023-08-07T01:34:18;99019.34;;;16.89;100.00
19748;BME280;10032;51.386;12.516;2023-08-07T01:36:45;99016.28;;;16.91;100.00
19748;BME280;10032;51.386;12.516;2023-08-07T01:39:13;99014.03;;;16.93;100.00
19748;BME280;10032;51.386;12.516;2023-08-07T01:41:40;99011.59;;;16.91;100.00
19748;BME280;10032;51.386;12.516;2023-08-07T01:44:06;99012.41;;;16.92;100.00
19748;BME280;10032;51.386;12.516;2023-08-07T01:46:31;99013.56;;;16.91;100.00
19748;BME280;10032;51.386;12.516;2023-08-07T01:48:57;99016.59;;;16.89;100.00
19748;BME280;10032;51.386;12.516;2023-08-07T01:51:22;99012.88;;;16.85;100.00
19748;BME280;10032;51.386;12.516;2023-08-07T01:53:47;99011.94;;;16.81;100.00
19748;BME280;10032;51.386;12.516;2023-08-07T01:56:13;99017.41;;;16.81;100.00
19748;BME280;10032;51.386;12.516;2023-08-07T01:58:38;99020.59;;;16.83;100.00
19748;BME280;10032;51.386;12.516;2023-08-07T02:01:03;99030.72;;;16.83;100.00
19748;BME280;10032;51.386;12.516;2023-08-07T02:03:29;99038.63;;;16.84;100.00
19748;BME280;10032;51.386;12.516;2023-08-07T02:05:54;99037.66;;;16.80;100.00
19748;BME280;10032;51.386;12.516;2023-08-07T02:08:20;99037.47;;;16.77;100.00
19748;BME280;10032;51.386;12.516;2023-08-07T02:10:45;99035.88;;;16.76;100.00
19748;BME280;10032;51.386;12.516;2023-08-07T02:13:10;99031.84;;;16.73;100.00
19748;BME280;10032;51.386;12.516;2023-08-07T02:15:36;99034.72;;;16.68;100.00
19748;BME280;10032;51.386;12.516;2023-08-07T02:18:01;99038.59;;;16.67;100.00
19748;BME280;10032;51.386;12.516;2023-08-07T02:20:26;99031.97;;;16.68;100.00
19748;BME280;10032;51.386;12.516;2023-08-07T02:22:52;99031.97;;;16.68;100.00
19748;BME280;10032;51.386;12.516;2023-08-07T02:25:17;99028.28;;;16.73;100.00
19748;BME280;10032;51.386;12.516;2023-08-07T02:27:43;99035.69;;;16.72;100.00
19748;BME280;10032;51.386;12.516;2023-08-07T02:30:08;99040.34;;;16.72;100.00
19748;BME280;10032;51.386;12.516;2023-08-07T02:32:34;99038.91;;;16.74;100.00
19748;BME280;10032;51.386;12.516;2023-08-07T02:34:59;99047.94;;;16.75;100.00
19748;BME280;10032;51.386;12.516;2023-08-07T02:37:25;99049.25;;;16.77;100.00
19748;BME280;10032;51.386;12.516;2023-08-07T02:39:50;99058.25;;;16.78;100.00
19748;BME280;10032;51.386;12.516;2023-08-07T02:42:16;99054.72;;;16.77;100.00
19748;BME280;10032;51.386;12.516;2023-08-07T02:44:41;99060.34;;;16.81;100.00
19748;BME280;10032;51.386;12.516;2023-08-07T02:47:07;99064.69;;;16.82;100.00
19748;BME280;10032;51.386;12.516;2023-08-07T02:49:32;99057.28;;;16.74;100.00
19748;BME280;10032;51.386;12.516;2023-08-07T02:51:58;99068.22;;;16.74;100.00
19748;BME280;10032;51.386;12.516;2023-08-07T02:54:23;99066.78;;;16.76;100.00
19748;BME280;10032;51.386;12.516;2023-08-07T02:56:49;99065.16;;;16.75;100.00
19748;BME280;10032;51.386;12.516;2023-08-07T02:59:15;99071.75;;;16.74;100.00
19748;BME280;10032;51.386;12.516;2023-08-07T03:01:40;99062.25;;;16.72;100.00
19748;BME280;10032;51.386;12.516;2023-08-07T03:04:06;99065.97;;;16.76;100.00
19748;BME280;10032;51.386;12.516;2023-08-07T03:06:31;99062.41;;;16.75;100.00
19748;BME280;10032;51.386;12.516;2023-08-07T03:08:57;99065.28;;;16.70;100.00
19748;BME280;10032;51.386;12.516;2023-08-07T03:11:22;99075.75;;;16.68;100.00
19748;BME280;10032;51.386;12.516;2023-08-07T03:13:47;99064.81;;;16.68;100.00
19748;BME280;10032;51.386;12.516;2023-08-07T03:16:14;99073.00;;;16.68;100.00
19748;BME280;10032;51.386;12.516;2023-08-07T03:18:40;99074.13;;;16.67;100.00
19748;BME280;10032;51.386;12.516;2023-08-07T03:21:05;99074.28;;;16.62;100.00
19748;BME280;10032;51.386;12.516;2023-08-07T03:23:31;99077.00;;;16.62;100.00
19748;BME280;10032;51.386;12.516;2023-08-07T03:26:07;99084.59;;;16.65;100.00
19748;BME280;10032;51.386;12.516;2023-08-07T03:28:34;99080.38;;;16.59;100.00
19748;BME280;10032;51.386;12.516;2023-08-07T03:30:59;99089.69;;;16.58;100.00
19748;BME280;10032;51.386;12.516;2023-08-07T03:33:25;99085.34;;;16.57;100.00
19748;BME280;10032;51.386;12.516;2023-08-07T03:35:50;99092.25;;;16.55;100.00
19748;BME280;10032;51.386;12.516;2023-08-07T03:38:16;99091.44;;;16.54;100.00
19748;BME280;10032;51.386;12.516;2023-08-07T03:40:41;99099.63;;;16.54;100.00
19748;BME280;10032;51.386;12.516;2023-08-07T03:43:07;99101.53;;;16.45;100.00
19748;BME280;10032;51.386;12.516;2023-08-07T03:45:32;99102.03;;;16.47;100.00
19748;BME280;10032;51.386;12.516;2023-08-07T03:47:57;99104.75;;;16.47;100.00
19748;BME280;10032;51.386;12.516;2023-08-07T03:50:23;99103.47;;;16.45;100.00
19748;BME280;10032;51.386;12.516;2023-08-07T03:52:48;99115.81;;;16.42;100.00
19748;BME280;10032;51.386;12.516;2023-08-07T03:55:14;99103.59;;;16.40;100.00
19748;BME280;10032;51.386;12.516;2023-08-07T03:57:39;99108.75;;;16.41;100.00
19748;BME280;10032;51.386;12.516;2023-08-07T04:00:05;99113.91;;;16.43;100.00
19748;BME280;10032;51.386;12.516;2023-08-07T04:02:31;99113.28;;;16.46;100.00
19748;BME280;10032;51.386;12.516;2023-08-07T04:04:56;99121.47;;;16.46;100.00
19748;BME280;10032;51.386;12.516;2023-08-07T04:07:21;99113.78;;;16.48;100.00
19748;BME280;10032;51.386;12.516;2023-08-07T04:09:47;99112.97;;;16.47;100.00
19748;BME280;10032;51.386;12.516;2023-08-07T04:12:12;99117.13;;;16.45;100.00
19748;BME280;10032;51.386;12.516;2023-08-07T04:14:38;99120.19;;;16.43;100.00
19748;BME280;10032;51.386;12.516;2023-08-07T04:17:03;99127.28;;;16.44;100.00
19748;BME280;10032;51.386;12.516;2023-08-07T04:19:29;99126.75;;;16.42;100.00
19748;BME280;10032;51.386;12.516;2023-08-07T04:21:54;99127.59;;;16.43;100.00
19748;BME280;10032;51.386;12.516;2023-08-07T04:24:20;99121.81;;;16.44;100.00
19748;BME280;10032;51.386;12.516;2023-08-07T04:26:45;99130.00;;;16.44;100.00
19748;BME280;10032;51.386;12.516;2023-08-07T04:29:10;99131.09;;;16.43;100.00
19748;BME280;10032;51.386;12.516;2023-08-07T04:31:36;99133.84;;;16.43;100.00
19748;BME280;10032;51.386;12.516;2023-08-07T04:34:01;99141.44;;;16.46;100.00
19748;BME280;10032;51.386;12.516;2023-08-07T04:36:27;99144.66;;;16.48;100.00
19748;BME280;10032;51.386;12.516;2023-08-07T04:38:52;99149.50;;;16.51;100.00
19748;BME280;10032;51.386;12.516;2023-08-07T04:41:17;99153.56;;;16.54;100.00
19748;BME280;10032;51.386;12.516;2023-08-07T04:43:43;99161.06;;;16.48;100.00
19748;BME280;10032;51.386;12.516;2023-08-07T04:46:09;99167.03;;;16.50;100.00
19748;BME280;10032;51.386;12.516;2023-08-07T04:48:35;99159.50;;;16.56;100.00
19748;BME280;10032;51.386;12.516;2023-08-07T04:51:01;99158.19;;;16.53;100.00
19748;BME280;10032;51.386;12.516;2023-08-07T04:53:27;99171.22;;;16.48;100.00
19748;BME280;10032;51.386;12.516;2023-08-07T04:55:52;99161.06;;;16.48;100.00
19748;BME280;10032;51.386;12.516;2023-08-07T04:58:17;99161.56;;;16.50;100.00
19748;BME280;10032;51.386;12.516;2023-08-07T05:00:43;99161.56;;;16.50;100.00
19748;BME280;10032;51.386;12.516;2023-08-07T05:03:08;99168.41;;;16.61;100.00
19748;BME280;10032;51.386;12.516;2023-08-07T05:05:34;99157.31;;;16.66;100.00
19748;BME280;10032;51.386;12.516;2023-08-07T05:07:59;99168.63;;;16.73;100.00
19748;BME280;10032;51.386;12.516;2023-08-07T05:10:25;99165.56;;;16.75;100.00
19748;BME280;10032;51.386;12.516;2023-08-07T05:12:50;99175.41;;;16.76;100.00
19748;BME280;10032;51.386;12.516;2023-08-07T05:15:25;99175.09;;;16.77;100.00
19748;BME280;10032;51.386;12.516;2023-08-07T05:17:51;99180.25;;;16.79;100.00
19748;BME280;10032;51.386;12.516;2023-08-07T05:20:17;99170.09;;;16.79;100.00
19748;BME280;10032;51.386;12.516;2023-08-07T05:22:43;99177.69;;;16.82;100.00
19748;BME280;10032;51.386;12.516;2023-08-07T05:25:09;99174.66;;;16.84;100.00
19748;BME280;10032;51.386;12.516;2023-08-07T05:27:36;99178.47;;;16.83;100.00
19748;BME280;10032;51.386;12.516;2023-08-07T05:30:02;99177.69;;;16.82;100.00
19748;BME280;10032;51.386;12.516;2023-08-07T05:32:27;99177.03;;;16.85;100.00
19748;BME280;10032;51.386;12.516;2023-08-07T05:34:53;99182.66;;;16.80;100.00
19748;BME280;10032;51.386;12.516;2023-08-07T05:37:19;99173.66;;;16.80;100.00
19748;BME280;10032;51.386;12.516;2023-08-07T05:39:44;99190.41;;;16.87;100.00
19748;BME280;10032;51.386;12.516;2023-08-07T05:42:09;99193.84;;;16.92;100.00
19748;BME280;10032;51.386;12.516;2023-08-07T05:44:35;99186.13;;;16.94;100.00
19748;BME280;10032;51.386;12.516;2023-08-07T05:47:01;99190.97;;;16.97;100.00
19748;BME280;10032;51.386;12.516;2023-08-07T05:49:26;99189.88;;;17.07;100.00
19748;BME280;10032;51.386;12.516;2023-08-07T05:51:52;99194.47;;;17.28;100.00
19748;BME280;10032;51.386;12.516;2023-08-07T05:54:17;99190.44;;;17.65;100.00
19748;BME280;10032;51.386;12.516;2023-08-07T05:56:43;99196.75;;;17.74;100.00
19748;BME280;10032;51.386;12.516;2023-08-07T05:59:08;99200.56;;;17.64;100.00
19748;BME280;10032;51.386;12.516;2023-08-07T06:01:34;99200.72;;;17.59;100.00
19748;BME280;10032;51.386;12.516;2023-08-07T06:03:59;99206.06;;;17.64;100.00
19748;BME280;10032;51.386;12.516;2023-08-07T06:06:25;99209.75;;;17.60;100.00
19748;BME280;10032;51.386;12.516;2023-08-07T06:08:53;99206.84;;;17.56;100.00
19748;BME280;10032;51.386;12.516;2023-08-07T06:11:18;99208.78;;;17.56;100.00
19748;BME280;10032;51.386;12.516;2023-08-07T06:13:44;99210.38;;;17.57;100.00
19748;BME280;10032;51.386;12.516;2023-08-07T06:16:09;99216.25;;;17.72;100.00
19748;BME280;10032;51.386;12.516;2023-08-07T06:18:35;99213.81;;;17.71;100.00
19748;BME280;10032;51.386;12.516;2023-08-07T06:21:00;99226.25;;;17.77;100.00
19748;BME280;10032;51.386;12.516;2023-08-07T06:23:26;99226.56;;;17.84;100.00
19748;BME280;10032;51.386;12.516;2023-08-07T06:25:51;99234.97;;;17.87;100.00
19748;BME280;10032;51.386;12.516;2023-08-07T06:28:17;99232.41;;;17.82;100.00
19748;BME280;10032;51.386;12.516;2023-08-07T06:30:42;99237.38;;;17.80;100.00
19748;BME280;10032;51.386;12.516;2023-08-07T06:33:07;99237.84;;;17.74;100.00
19748;BME280;10032;51.386;12.516;2023-08-07T06:35:39;99246.38;;;17.72;100.00
19748;BME280;10032;51.386;12.516;2023-08-07T06:38:05;99249.75;;;17.69;100.00
19748;BME280;10032;51.386;12.516;2023-08-07T06:40:31;99255.41;;;17.73;100.00
19748;BME280;10032;51.386;12.516;2023-08-07T06:42:56;99256.53;;;17.72;100.00
19748;BME280;10032;51.386;12.516;2023-08-07T06:45:21;99253.94;;;17.75;100.00
19748;BME280;10032;51.386;12.516;2023-08-07T06:47:47;99257.97;;;17.69;100.00
19748;BME280;10032;51.386;12.516;2023-08-07T06:50:14;99261.69;;;17.65;100.00
19748;BME280;10032;51.386;12.516;2023-08-07T06:52:39;99262.00;;;17.72;100.00
19748;BME280;10032;51.386;12.516;2023-08-07T06:55:05;99258.78;;;17.70;100.00
19748;BME280;10032;51.386;12.516;2023-08-07T06:57:30;99254.66;;;17.89;100.00
19748;BME280;10032;51.386;12.516;2023-08-07T06:59:56;99250.66;;;18.12;100.00
19748;BME280;10032;51.386;12.516;2023-08-07T07:02:21;99261.03;;;18.32;100.00
19748;BME280;10032;51.386;12.516;2023-08-07T07:04:47;99266.03;;;18.39;100.00
19748;BME280;10032;51.386;12.516;2023-08-07T07:07:12;99253.63;;;18.41;100.00
19748;BME280;10032;51.386;12.516;2023-08-07T07:09:37;99262.97;;;18.57;100.00
19748;BME280;10032;51.386;12.516;2023-08-07T07:12:03;99275.91;;;18.74;100.00
19748;BME280;10032;51.386;12.516;2023-08-07T07:14:28;99272.34;;;18.73;100.00
19748;BME280;10032;51.386;12.516;2023-08-07T07:16:54;99279.59;;;18.69;100.00
19748;BME280;10032;51.386;12.516;2023-08-07T07:19:19;99274.78;;;18.66;100.00
19748;BME280;10032;51.386;12.516;2023-08-07T07:21:45;99278.97;;;18.64;100.00
19748;BME280;10032;51.386;12.516;2023-08-07T07:24:10;99282.84;;;18.71;100.00
19748;BME280;10032;51.386;12.516;2023-08-07T07:26:36;99281.69;;;18.72;100.00
19748;BME280;10032;51.386;12.516;2023-08-07T07:29:01;99287.19;;;18.72;100.00
19748;BME280;10032;51.386;12.516;2023-08-07T07:31:27;99283.44;;;18.85;100.00
19748;BME280;10032;51.386;12.516;2023-08-07T07:33:52;99282.94;;;19.00;100.00
19748;BME280;10032;51.386;12.516;2023-08-07T07:36:18;99286.97;;;19.11;100.00
19748;BME280;10032;51.386;12.516;2023-08-07T07:38:45;99291.16;;;19.26;100.00
19748;BME280;10032;51.386;12.516;2023-08-07T07:41:11;99299.88;;;19.36;100.00
19748;BME280;10032;51.386;12.516;2023-08-07T07:43:37;99292.09;;;19.38;100.00
19748;BME280;10032;51.386;12.516;2023-08-07T07:46:03;99292.44;;;19.28;100.00
19748;BME280;10032;51.386;12.516;2023-08-07T07:48:28;99295.16;;;19.45;100.00
19748;BME280;10032;51.386;12.516;2023-08-07T07:51:01;99305.19;;;19.41;100.00
19748;BME280;10032;51.386;12.516;2023-08-07T07:53:26;99297.09;;;19.45;100.00
19748;BME280;10032;51.386;12.516;2023-08-07T07:55:52;99295.97;;;19.37;100.00
19748;BME280;10032;51.386;12.516;2023-08-07T07:58:17;99303.22;;;19.50;100.00
19748;BME280;10032;51.386;12.516;2023-08-07T08:00:43;99300.34;;;19.38;100.00
19748;BME280;10032;51.386;12.516;2023-08-07T08:03:08;99304.56;;;19.27;100.00
19748;BME280;10032;51.386;12.516;2023-08-07T08:05:34;99314.41;;;19.28;100.00
19748;BME280;10032;51.386;12.516;2023-08-07T08:08:00;99319.75;;;19.33;100.00
19748;BME280;10032;51.386;12.516;2023-08-07T08:10:27;99327.47;;;19.48;100.00
19748;BME280;10032;51.386;12.516;2023-08-07T08:12:55;99310.91;;;19.65;100.00
19748;BME280;10032;51.386;12.516;2023-08-07T08:15:21;99321.91;;;19.65;100.00
19748;BME280;10032;51.386;12.516;2023-08-07T08:17:47;99322.25;;;19.55;100.00
19748;BME280;10032;51.386;12.516;2023-08-07T08:20:14;99317.09;;;19.62;100.00
19748;BME280;10032;51.386;12.516;2023-08-07T08:22:46;99329.03;;;19.66;100.00
19748;BME280;10032;51.386;12.516;2023-08-07T08:25:13;99326.41;;;19.78;100.00
19748;BME280;10032;51.386;12.516;2023-08-07T08:27:39;99326.22;;;19.83;100.00
19748;BME280;10032;51.386;12.516;2023-08-07T08:30:05;99331.97;;;19.99;100.00
19748;BME280;10032;51.386;12.516;2023-08-07T08:32:30;99332.63;;;19.96;100.00
19748;BME280;10032;51.386;12.516;2023-08-07T08:34:56;99340.09;;;19.87;100.00
19748;BME280;10032;51.386;12.516;2023-08-07T08:37:21;99352.56;;;19.84;100.00
19748;BME280;10032;51.386;12.516;2023-08-07T08:39:47;99341.09;;;19.82;100.00
19748;BME280;10032;51.386;12.516;2023-08-07T08:42:13;99344.13;;;19.89;100.00
19748;BME280;10032;51.386;12.516;2023-08-07T08:44:39;99348.31;;;19.95;100.00
19748;BME280;10032;51.386;12.516;2023-08-07T08:47:06;99353.72;;;19.83;100.00
19748;BME280;10032;51.386;12.516;2023-08-07T08:49:39;99350.84;;;19.71;100.00
19748;BME280;10032;51.386;12.516;2023-08-07T08:52:08;99354.53;;;19.75;100.00
19748;BME280;10032;51.386;12.516;2023-08-07T08:54:34;99345.31;;;19.80;100.00
19748;BME280;10032;51.386;12.516;2023-08-07T08:57:00;99347.22;;;19.88;100.00
19748;BME280;10032;51.386;12.516;2023-08-07T08:59:26;99341.34;;;19.98;100.00
19748;BME280;10032;51.386;12.516;2023-08-07T09:01:52;99340.94;;;19.87;100.00
19748;BME280;10032;51.386;12.516;2023-08-07T09:04:18;99344.81;;;19.78;100.00
19748;BME280;10032;51.386;12.516;2023-08-07T09:06:44;99354.28;;;19.60;100.00
19748;BME280;10032;51.386;12.516;2023-08-07T09:09:17;99357.75;;;19.31;100.00
19748;BME280;10032;51.386;12.516;2023-08-07T09:11:45;99358.22;;;19.16;100.00
19748;BME280;10032;51.386;12.516;2023-08-07T09:14:20;99369.69;;;18.93;100.00
19748;BME280;10032;51.386;12.516;2023-08-07T09:16:48;99371.13;;;18.73;100.00
19748;BME280;10032;51.386;12.516;2023-08-07T09:19:14;99377.56;;;18.60;100.00
19748;BME280;10032;51.386;12.516;2023-08-07T09:21:39;99373.72;;;18.61;100.00
19748;BME280;10032;51.386;12.516;2023-08-07T09:24:05;99373.56;;;18.66;100.00
19748;BME280;10032;51.386;12.516;2023-08-07T09:26:32;99369.03;;;18.79;100.00
19748;BME280;10032;51.386;12.516;2023-08-07T09:28:58;99384.06;;;18.98;100.00
19748;BME280;10032;51.386;12.516;2023-08-07T09:31:24;99381.63;;;19.14;100.00
19748;BME280;10032;51.386;12.516;2023-08-07T09:33:54;99377.91;;;19.10;100.00
19748;BME280;10032;51.386;12.516;2023-08-07T09:36:19;99386.16;;;19.18;100.00
19748;BME280;10032;51.386;12.516;2023-08-07T09:38:49;99384.56;;;19.26;100.00
19748;BME280;10032;51.386;12.516;2023-08-07T09:41:18;99385.34;;;19.18;100.00
19748;BME280;10032;51.386;12.516;2023-08-07T09:43:44;99392.47;;;19.10;100.00
19748;BME280;10032;51.386;12.516;2023-08-07T09:46:10;99381.66;;;18.97;100.00
19748;BME280;10032;51.386;12.516;2023-08-07T09:48:44;99378.59;;;18.98;100.00
19748;BME280;10032;51.386;12.516;2023-08-07T09:51:10;99380.50;;;19.06;100.00
19748;BME280;10032;51.386;12.516;2023-08-07T09:53:36;99377.31;;;19.21;100.00
19748;BME280;10032;51.386;12.516;2023-08-07T09:56:01;99376.94;;;19.40;100.00
19748;BME280;10032;51.386;12.516;2023-08-07T09:58:28;99370.50;;;19.36;100.00
19748;BME280;10032;51.386;12.516;2023-08-07T10:00:53;99371.50;;;19.23;100.00
19748;BME280;10032;51.386;12.516;2023-08-07T10:03:22;99375.81;;;19.15;100.00
19748;BME280;10032;51.386;12.516;2023-08-07T10:05:48;99368.38;;;19.07;100.00
19748;BME280;10032;51.386;12.516;2023-08-07T10:08:14;99379.53;;;18.85;100.00
19748;BME280;10032;51.386;12.516;2023-08-07T10:10:39;99393.88;;;18.65;100.00
19748;BME280;10032;51.386;12.516;2023-08-07T10:13:05;99403.53;;;18.46;100.00
19748;BME280;10032;51.386;12.516;2023-08-07T10:15:32;99410.25;;;18.31;100.00
19748;BME280;10032;51.386;12.516;2023-08-07T10:17:58;99421.63;;;18.16;100.00
19748;BME280;10032;51.386;12.516;2023-08-07T10:20:28;99414.66;;;18.02;100.00
19748;BME280;10032;51.386;12.516;2023-08-07T10:23:08;99426.72;;;17.92;100.00
19748;BME280;10032;51.386;12.516;2023-08-07T10:25:35;99412.00;;;17.88;100.00
19748;BME280;10032;51.386;12.516;2023-08-07T10:28:04;99407.38;;;17.97;100.00
19748;BME280;10032;51.386;12.516;2023-08-07T10:30:32;99405.84;;;18.13;100.00
19748;BME280;10032;51.386;12.516;2023-08-07T10:32:59;99411.66;;;18.20;100.00
19748;BME280;10032;51.386;12.516;2023-08-07T10:35:32;99406.25;;;18.37;100.00
19748;BME280;10032;51.386;12.516;2023-08-07T10:38:08;99410.50;;;18.60;100.00
19748;BME280;10032;51.386;12.516;2023-08-07T10:41:01;99398.75;;;19.02;100.00
19748;BME280;10032;51.386;12.516;2023-08-07T10:43:26;99397.66;;;19.37;100.00
19748;BME280;10032;51.386;12.516;2023-08-07T10:45:53;99394.72;;;19.51;100.00
19748;BME280;10032;51.386;12.516;2023-08-07T10:48:20;99391.28;;;19.62;100.00
19748;BME280;10032;51.386;12.516;2023-08-07T10:55:57;99393.84;;;20.51;100.00
19748;BME280;10032;51.386;12.516;2023-08-07T10:58:34;99396.09;;;20.57;100.00
19748;BME280;10032;51.386;12.516;2023-08-07T11:04:06;99403.41;;;20.16;100.00
19748;BME280;10032;51.386;12.516;2023-08-07T11:06:34;99395.19;;;20.07;100.00
19748;BME280;10032;51.386;12.516;2023-08-07T11:09:00;99403.13;;;20.09;100.00
19748;BME280;10032;51.386;12.516;2023-08-07T11:11:28;99404.56;;;20.06;100.00
19748;BME280;10032;51.386;12.516;2023-08-07T11:13:54;99400.28;;;19.88;100.00
19748;BME280;10032;51.386;12.516;2023-08-07T11:16:20;99407.41;;;19.81;100.00
19748;BME280;10032;51.386;12.516;2023-08-07T11:18:49;99394.84;;;19.63;100.00
19748;BME280;10032;51.386;12.516;2023-08-07T11:21:14;99400.22;;;19.42;100.00
19748;BME280;10032;51.386;12.516;2023-08-07T11:23:41;99401.38;;;19.33;100.00
19748;BME280;10032;51.386;12.516;2023-08-07T11:26:07;99405.59;;;19.30;100.00
19748;BME280;10032;51.386;12.516;2023-08-07T11:28:33;99399.41;;;19.42;100.00
19748;BME280;10032;51.386;12.516;2023-08-07T11:30:59;99401.94;;;19.72;100.00
19748;BME280;10032;51.386;12.516;2023-08-07T11:33:26;99400.84;;;20.11;100.00
19748;BME280;10032;51.386;12.516;2023-08-07T11:35:53;99399.22;;;20.47;100.00
19748;BME280;10032;51.386;12.516;2023-08-07T11:38:34;99397.38;;;20.80;100.00
19748;BME280;10032;51.386;12.516;2023-08-07T11:41:01;99390.97;;;20.97;100.00
19748;BME280;10032;51.386;12.516;2023-08-07T11:43:28;99394.13;;;21.07;100.00
19748;BME280;10032;51.386;12.516;2023-08-07T11:45:56;99387.63;;;21.12;100.00
19748;BME280;10032;51.386;12.516;2023-08-07T11:48:30;99397.94;;;21.15;100.00
19748;BME280;10032;51.386;12.516;2023-08-07T11:50:56;99403.75;;;21.22;100.00
19748;BME280;10032;51.386;12.516;2023-08-07T11:53:24;99403.06;;;21.25;100.00
19748;BME280;10032;51.386;12.516;2023-08-07T11:55:58;99396.75;;;21.04;100.00
19748;BME280;10032;51.386;12.516;2023-08-07T11:58:25;99395.72;;;20.88;100.00
19748;BME280;10032;51.386;12.516;2023-08-07T12:00:51;99397.50;;;20.84;100.00
19748;BME280;10032;51.386;12.516;2023-08-07T12:06:14;99390.84;;;20.64;100.00
19748;BME280;10032;51.386;12.516;2023-08-07T12:08:41;99403.84;;;20.55;100.00
19748;BME280;10032;51.386;12.516;2023-08-07T12:11:11;99405.06;;;20.46;100.00
19748;BME280;10032;51.386;12.516;2023-08-07T12:13:46;99412.31;;;20.21;100.00
19748;BME280;10032;51.386;12.516;2023-08-07T12:16:15;99419.53;;;19.88;100.00
19748;BME280;10032;51.386;12.516;2023-08-07T12:18:53;99428.97;;;19.53;100.00
19748;BME280;10032;51.386;12.516;2023-08-07T12:21:22;99430.94;;;19.27;100.00
19748;BME280;10032;51.386;12.516;2023-08-07T12:24:11;99420.56;;;19.07;100.00
19748;BME280;10032;51.386;12.516;2023-08-07T12:26:46;99423.47;;;18.85;100.00
19748;BME280;10032;51.386;12.516;2023-08-07T12:29:30;99417.31;;;18.71;100.00
19748;BME280;10032;51.386;12.516;2023-08-07T12:32:04;99426.16;;;18.60;100.00
19748;BME280;10032;51.386;12.516;2023-08-07T12:34:35;99415.50;;;18.50;100.00
19748;BME280;10032;51.386;12.516;2023-08-07T12:40:16;99438.56;;;18.49;100.00
19748;BME280;10032;51.386;12.516;2023-08-07T12:42:45;99454.13;;;18.31;100.00
19748;BME280;10032;51.386;12.516;2023-08-07T12:45:11;99458.63;;;18.27;100.00
19748;BME280;10032;51.386;12.516;2023-08-07T12:47:36;99472.59;;;18.17;100.00
19748;BME280;10032;51.386;12.516;2023-08-07T12:50:02;99472.34;;;17.97;100.00
19748;BME280;10032;51.386;12.516;2023-08-07T12:52:28;99477.00;;;17.96;100.00
19748;BME280;10032;51.386;12.516;2023-08-07T12:54:58;99475.41;;;17.95;100.00
19748;BME280;10032;51.386;12.516;2023-08-07T12:57:23;99478.91;;;17.87;100.00